createdAt,value
2018-09-30T00:01:30.652Z,99712.63
2018-09-30T00:04:00.658Z,99603.25
2018-09-30T00:06:30.839Z,99676.44
2018-09-30T00:08:59.474Z,99699.41
2018-09-30T00:11:28.421Z,99680.72
2018-09-30T00:13:57.863Z,99695.77
2018-09-30T00:16:27.347Z,99697.91
2018-09-30T00:18:55.750Z,99690.98
2018-09-30T00:21:25.254Z,99656.17
2018-09-30T00:23:58.762Z,99640.34
2018-09-30T00:26:32.567Z,99687.12
2018-09-30T00:29:01.632Z,99696.52
2018-09-30T00:31:32.571Z,99649.23
2018-09-30T00:34:07.547Z,99667.00
2018-09-30T00:36:36.202Z,99695.15
2018-09-30T00:39:06.150Z,99716.12
2018-09-30T00:41:34.609Z,99682.45
2018-09-30T00:44:02.889Z,99635.95
2018-09-30T00:46:30.972Z,99670.11
2018-09-30T00:48:59.692Z,99668.34
2018-09-30T00:51:28.530Z,99592.72
2018-09-30T00:53:57.237Z,99641.34
2018-09-30T00:56:25.774Z,99657.34
2018-09-30T00:58:54.380Z,99624.94
2018-09-30T01:01:23.008Z,99658.77
2018-09-30T01:03:52.114Z,99653.40
2018-09-30T01:06:21.180Z,99617.96
2018-09-30T01:08:49.884Z,99659.80
2018-09-30T01:11:18.587Z,99643.48
2018-09-30T01:13:47.160Z,99653.68
2018-09-30T01:16:15.678Z,99652.22
2018-09-30T01:18:45.309Z,99672.70
2018-09-30T01:21:14.598Z,99646.21
2018-09-30T01:23:44.291Z,99591.33
2018-09-30T01:26:12.923Z,99638.71
2018-09-30T01:28:41.265Z,99645.22
2018-09-30T01:31:10.451Z,99600.53
2018-09-30T01:33:39.188Z,99648.09
2018-09-30T01:36:08.446Z,99642.72
2018-09-30T01:38:37.219Z,99603.50
2018-09-30T01:41:06.931Z,99601.16
2018-09-30T01:43:35.245Z,99629.05
2018-09-30T01:46:03.721Z,99632.75
2018-09-30T01:48:32.453Z,99630.08
2018-09-30T01:51:00.873Z,99585.70
2018-09-30T01:53:29.340Z,99598.71
2018-09-30T01:55:57.867Z,99575.14
2018-09-30T01:58:27.661Z,99612.17
2018-09-30T02:00:56.717Z,99613.91
2018-09-30T02:03:24.792Z,99611.11
2018-09-30T02:05:53.315Z,99608.93
2018-09-30T02:08:22.054Z,99613.32
2018-09-30T02:10:50.274Z,99609.06
2018-09-30T02:13:18.494Z,99613.88
2018-09-30T02:15:47.138Z,99609.71
2018-09-30T02:18:15.641Z,99597.17
2018-09-30T02:20:44.167Z,99599.31
2018-09-30T02:23:12.404Z,99582.34
2018-09-30T02:25:40.557Z,99581.13
2018-09-30T02:28:08.770Z,99597.72
2018-09-30T02:30:37.409Z,99589.80
2018-09-30T02:33:06.064Z,99589.24
2018-09-30T02:35:35.524Z,99586.05
2018-09-30T02:38:05.667Z,99584.13
2018-09-30T02:40:34.520Z,99584.95
2018-09-30T02:43:02.632Z,99574.95
2018-09-30T02:45:31.316Z,99493.52
2018-09-30T02:47:59.697Z,99544.33
2018-09-30T02:50:27.798Z,99503.76
2018-09-30T02:52:56.722Z,99519.58
2018-09-30T02:55:24.829Z,99554.53
2018-09-30T02:57:53.316Z,99556.63
2018-09-30T03:00:22.153Z,99552.05
2018-09-30T03:02:50.333Z,99546.02
2018-09-30T03:05:18.788Z,99542.72
2018-09-30T03:07:53.150Z,99523.45
2018-09-30T03:10:21.326Z,99535.23
2018-09-30T03:12:49.761Z,99530.94
2018-09-30T03:15:18.530Z,99532.59
2018-09-30T03:17:46.883Z,99523.41
2018-09-30T03:20:15.351Z,99442.30
2018-09-30T03:22:44.348Z,99532.51
2018-09-30T03:25:12.440Z,99522.27
2018-09-30T03:27:40.634Z,99500.41
2018-09-30T03:30:09.383Z,99500.84
2018-09-30T03:32:37.729Z,99520.48
2018-09-30T03:35:05.980Z,99478.43
2018-09-30T03:37:34.703Z,99469.33
2018-09-30T03:40:02.962Z,99504.48
2018-09-30T03:42:31.513Z,99496.48
2018-09-30T03:45:00.639Z,99499.09
2018-09-30T03:47:28.813Z,99492.05
2018-09-30T03:49:57.277Z,99486.56
2018-09-30T03:52:25.899Z,99494.92
2018-09-30T03:54:54.292Z,99487.80
2018-09-30T03:57:22.767Z,99414.63
2018-09-30T03:59:51.335Z,99454.34
2018-09-30T04:02:19.713Z,99490.92
2018-09-30T04:04:48.465Z,99483.16
2018-09-30T04:07:17.545Z,99476.43
2018-09-30T04:09:45.785Z,99448.95
2018-09-30T04:12:13.709Z,99469.15
2018-09-30T04:14:42.170Z,99468.95
2018-09-30T04:17:10.813Z,99415.02
2018-09-30T04:19:39.137Z,99455.16
2018-09-30T04:22:07.351Z,99455.76
2018-09-30T04:24:35.538Z,99418.02
2018-09-30T04:27:04.022Z,99463.23
2018-09-30T04:29:32.513Z,99455.44
2018-09-30T04:32:00.657Z,99453.59
2018-09-30T04:34:29.199Z,99457.44
2018-09-30T04:36:57.745Z,99460.86
2018-09-30T04:39:25.868Z,99457.78
2018-09-30T04:41:54.667Z,99465.72
2018-09-30T04:44:23.089Z,99462.63
2018-09-30T04:46:51.235Z,99466.23
2018-09-30T04:49:19.459Z,99429.05
2018-09-30T04:51:47.723Z,99461.59
2018-09-30T04:54:16.248Z,99462.33
2018-09-30T04:56:45.780Z,99460.09
2018-09-30T04:59:14.652Z,99459.98
2018-09-30T05:01:42.720Z,99452.03
2018-09-30T05:04:11.045Z,99405.69
2018-09-30T05:06:39.125Z,99461.41
2018-09-30T05:09:07.999Z,99542.23
2018-09-30T05:11:36.176Z,99446.87
2018-09-30T05:14:04.732Z,99468.72
2018-09-30T05:16:34.471Z,99464.66
2018-09-30T05:19:03.962Z,99459.98
2018-09-30T05:21:32.448Z,99465.64
2018-09-30T05:24:00.901Z,99410.03
2018-09-30T05:26:29.456Z,99478.11
2018-09-30T05:28:57.813Z,99436.89
2018-09-30T05:31:26.468Z,99469.76
2018-09-30T05:33:54.530Z,99478.27
2018-09-30T05:36:22.648Z,99470.59
2018-09-30T05:38:51.665Z,99479.52
2018-09-30T05:41:20.595Z,99465.63
2018-09-30T05:43:49.354Z,99457.49
2018-09-30T05:46:18.605Z,99466.70
2018-09-30T05:48:46.961Z,99463.12
2018-09-30T05:51:15.600Z,99537.19
2018-09-30T05:53:45.489Z,99471.33
2018-09-30T05:56:14.367Z,99466.33
2018-09-30T05:58:42.517Z,99464.84
2018-09-30T06:01:11.253Z,99455.56
2018-09-30T06:03:39.439Z,99456.86
2018-09-30T06:06:07.917Z,99457.30
2018-09-30T06:08:37.831Z,99455.05
2018-09-30T06:11:06.782Z,99281.50
2018-09-30T06:13:35.378Z,99456.86
2018-09-30T06:16:06.031Z,99449.85
2018-09-30T06:18:35.316Z,99456.77
2018-09-30T06:21:03.576Z,99398.45
2018-09-30T06:23:32.239Z,99465.94
2018-09-30T06:26:00.755Z,99467.52
2018-09-30T06:28:29.473Z,99476.34
2018-09-30T06:30:58.831Z,99473.86
2018-09-30T06:33:32.213Z,99464.48
2018-09-30T06:36:02.231Z,99463.44
2018-09-30T06:38:30.860Z,99466.57
2018-09-30T06:41:00.669Z,99458.94
2018-09-30T06:43:29.061Z,99455.84
2018-09-30T06:45:57.835Z,99464.19
2018-09-30T06:48:29.899Z,99294.06
2018-09-30T06:51:00.420Z,99472.52
2018-09-30T06:53:29.451Z,99470.73
2018-09-30T06:55:57.777Z,99469.00
2018-09-30T06:58:26.291Z,99465.66
2018-09-30T07:00:54.878Z,99474.54
2018-09-30T07:03:23.001Z,99474.59
2018-09-30T07:05:54.518Z,99475.27
2018-09-30T07:08:23.931Z,99480.86
2018-09-30T07:10:52.790Z,99400.16
2018-09-30T07:13:22.820Z,99441.53
2018-09-30T07:15:55.240Z,99277.48
2018-09-30T07:18:29.814Z,99474.15
2018-09-30T07:21:03.553Z,99475.92
2018-09-30T07:23:32.426Z,99494.17
2018-09-30T07:26:06.368Z,99469.59
2018-09-30T07:28:37.588Z,99467.57
2018-09-30T07:31:10.077Z,99465.38
2018-09-30T07:33:39.317Z,99464.26
2018-09-30T07:36:08.510Z,99463.70
2018-09-30T07:38:36.839Z,99457.87
2018-09-30T07:41:05.715Z,99460.98
2018-09-30T07:43:36.077Z,99459.46
2018-09-30T07:46:07.395Z,99454.75
2018-09-30T07:48:37.265Z,99444.47
2018-09-30T07:51:05.863Z,99446.88
2018-09-30T07:53:35.153Z,99435.97
2018-09-30T07:56:06.687Z,99438.02
2018-09-30T07:58:35.848Z,99438.88
2018-09-30T08:01:05.091Z,99422.44
2018-09-30T08:03:43.768Z,99419.93
2018-09-30T08:06:12.912Z,99414.53
2018-09-30T08:08:41.435Z,99412.91
2018-09-30T08:11:11.259Z,99413.05
2018-09-30T08:13:41.497Z,99410.97
2018-09-30T08:16:13.558Z,99422.59
2018-09-30T08:18:44.485Z,99337.56
2018-09-30T08:21:26.345Z,99394.31
2018-09-30T08:23:59.979Z,99382.09
2018-09-30T08:26:29.781Z,99291.77
2018-09-30T08:28:59.606Z,99368.05
2018-09-30T08:31:32.966Z,99361.73
2018-09-30T08:34:09.560Z,99361.66
2018-09-30T08:36:39.757Z,99353.66
2018-09-30T08:39:11.436Z,99378.08
2018-09-30T08:41:40.371Z,99342.60
2018-09-30T08:44:12.439Z,99334.23
2018-09-30T08:46:40.859Z,99334.73
2018-09-30T08:49:12.272Z,99128.86
2018-09-30T08:51:51.071Z,99331.41
2018-09-30T08:54:20.393Z,99336.83
2018-09-30T08:56:50.129Z,99333.02
2018-09-30T08:59:18.901Z,99330.89
2018-09-30T09:01:47.243Z,99320.80
2018-09-30T09:04:16.310Z,99323.37
2018-09-30T09:06:46.584Z,99318.73
2018-09-30T09:09:16.102Z,99318.69
2018-09-30T09:11:47.779Z,99322.16
2018-09-30T09:14:18.215Z,99321.59
2018-09-30T09:16:48.207Z,99316.98
2018-09-30T09:19:22.572Z,99319.02
2018-09-30T09:21:53.405Z,99292.86
2018-09-30T09:24:22.560Z,99273.56
2018-09-30T09:26:52.687Z,99323.52
2018-09-30T09:29:23.792Z,99310.67
2018-09-30T09:31:58.379Z,99312.91
2018-09-30T09:34:27.424Z,99314.70
2018-09-30T09:37:00.568Z,99306.03
2018-09-30T09:39:32.479Z,99308.25
2018-09-30T09:42:03.836Z,99301.97
2018-09-30T09:44:40.583Z,99270.67
2018-09-30T09:47:09.728Z,99303.05
2018-09-30T09:49:42.936Z,99178.82
2018-09-30T09:52:13.278Z,99299.01
2018-09-30T09:54:45.349Z,99287.88
2018-09-30T09:57:21.056Z,99236.91
2018-09-30T09:59:52.344Z,99260.99
2018-09-30T10:02:27.503Z,99301.03
2018-09-30T10:05:01.167Z,99230.23
2018-09-30T10:07:30.475Z,99273.16
2018-09-30T10:10:00.278Z,99295.53
2018-09-30T10:12:30.179Z,99289.47
2018-09-30T10:15:03.230Z,99234.93
2018-09-30T10:17:31.686Z,99279.25
2018-09-30T10:20:01.481Z,99266.02
2018-09-30T10:22:30.368Z,99267.89
2018-09-30T10:25:02.822Z,99260.98
2018-09-30T10:27:31.296Z,99247.55
2018-09-30T10:30:00.796Z,99270.23
2018-09-30T10:32:29.600Z,99253.11
2018-09-30T10:34:59.630Z,99246.28
2018-09-30T10:37:28.298Z,99248.64
2018-09-30T10:39:59.048Z,99255.73
2018-09-30T10:42:27.899Z,99244.23
2018-09-30T10:44:56.885Z,99230.97
2018-09-30T10:47:27.070Z,99238.52
2018-09-30T10:49:57.253Z,99232.09
2018-09-30T10:52:26.372Z,99234.08
2018-09-30T10:54:55.407Z,99216.39
2018-09-30T10:57:27.062Z,99224.32
2018-09-30T10:59:56.105Z,99222.91
2018-09-30T11:02:28.387Z,99221.75
2018-09-30T11:04:59.032Z,99213.27
2018-09-30T11:07:27.837Z,99212.78
2018-09-30T11:09:56.099Z,99204.94
2018-09-30T11:12:24.896Z,99202.05
2018-09-30T11:14:53.472Z,99189.27
2018-09-30T11:17:22.725Z,99190.85
2018-09-30T11:19:54.060Z,99192.54
2018-09-30T11:22:22.964Z,99158.83
2018-09-30T11:24:51.587Z,99175.26
2018-09-30T11:27:20.914Z,99174.42
2018-09-30T11:29:49.423Z,99161.08
2018-09-30T11:32:18.436Z,99173.30
2018-09-30T11:34:48.190Z,99160.53
2018-09-30T11:37:17.562Z,99148.17
2018-09-30T11:39:46.785Z,99145.34
2018-09-30T11:42:17.575Z,99149.83
2018-09-30T11:44:46.333Z,99138.53
2018-09-30T11:47:16.141Z,99128.52
2018-09-30T11:49:45.870Z,99128.55
2018-09-30T11:52:15.124Z,99124.48
2018-09-30T11:54:46.063Z,99117.63
2018-09-30T11:57:16.487Z,99110.14
2018-09-30T11:59:47.100Z,99103.91
2018-09-30T12:02:17.077Z,99109.34
2018-09-30T12:04:46.936Z,99106.39
2018-09-30T12:07:17.132Z,99082.64
2018-09-30T12:09:47.511Z,99091.48
2018-09-30T12:12:18.189Z,99091.06
2018-09-30T12:14:47.572Z,99089.59
2018-09-30T12:17:16.712Z,99073.35
2018-09-30T12:19:46.865Z,99074.51
2018-09-30T12:22:15.296Z,99040.71
2018-09-30T12:24:43.939Z,99039.22
2018-09-30T12:27:12.327Z,99002.37
2018-09-30T12:29:40.724Z,99066.33
2018-09-30T12:32:09.168Z,99029.46
2018-09-30T12:34:40.795Z,99008.01
2018-09-30T12:37:09.496Z,99042.22
2018-09-30T12:39:38.443Z,99043.81
2018-09-30T12:42:07.238Z,99034.19
2018-09-30T12:44:36.739Z,99032.77
2018-09-30T12:47:06.632Z,99032.60
2018-09-30T12:49:37.462Z,99018.50
2018-09-30T12:52:06.394Z,99025.11
2018-09-30T12:54:36.660Z,98983.04
2018-09-30T12:57:04.987Z,99015.48
2018-09-30T12:59:37.669Z,99018.43
2018-09-30T13:02:07.401Z,98934.08
2018-09-30T13:04:36.207Z,99004.13
2018-09-30T13:07:06.022Z,98992.83
2018-09-30T13:09:40.422Z,98980.55
2018-09-30T13:12:13.312Z,98961.59
2018-09-30T13:14:44.762Z,98969.73
2018-09-30T13:17:16.842Z,98948.66
2018-09-30T13:19:45.109Z,98980.35
2018-09-30T13:22:14.148Z,98981.79
2018-09-30T13:24:44.897Z,98944.23
2018-09-30T13:27:14.672Z,98967.80
2018-09-30T13:29:46.788Z,98965.70
2018-09-30T13:32:20.553Z,98968.45
2018-09-30T13:34:50.589Z,98968.67
2018-09-30T13:37:20.397Z,98952.65
2018-09-30T13:39:53.450Z,98957.20
2018-09-30T13:42:25.503Z,98953.91
2018-09-30T13:44:54.921Z,98956.87
2018-09-30T13:47:26.483Z,98952.13
2018-09-30T13:49:54.774Z,98910.66
2018-09-30T13:52:24.629Z,98936.31
2018-09-30T13:54:56.117Z,98940.45
2018-09-30T13:57:29.780Z,98934.89
2018-09-30T13:59:58.213Z,98928.94
2018-09-30T14:02:31.004Z,98925.95
2018-09-30T14:04:59.681Z,98928.86
2018-09-30T14:07:29.514Z,98913.20
2018-09-30T14:09:57.886Z,98905.77
2018-09-30T14:12:28.527Z,98905.65
2018-09-30T14:14:57.879Z,98909.48
2018-09-30T14:17:26.621Z,98906.27
2018-09-30T14:19:57.561Z,98899.30
2018-09-30T14:22:26.620Z,98900.25
2018-09-30T14:24:55.016Z,98895.16
2018-09-30T14:27:24.792Z,98898.53
2018-09-30T14:29:53.680Z,98887.23
2018-09-30T14:32:21.745Z,98888.64
2018-09-30T14:34:50.638Z,98884.77
2018-09-30T14:37:18.896Z,98882.13
2018-09-30T14:39:47.230Z,98873.39
2018-09-30T14:42:15.459Z,98801.42
2018-09-30T14:44:43.605Z,98868.45
2018-09-30T14:47:12.035Z,98868.83
2018-09-30T14:49:40.754Z,98878.62
2018-09-30T14:52:09.646Z,98868.84
2018-09-30T14:54:38.494Z,98849.70
2018-09-30T14:57:06.718Z,98857.73
2018-09-30T14:59:34.929Z,98856.53
2018-09-30T15:02:03.652Z,98849.80
2018-09-30T15:04:32.303Z,98853.92
2018-09-30T15:07:00.404Z,98851.70
2018-09-30T15:09:28.756Z,98846.28
2018-09-30T15:11:56.916Z,98844.87
2018-09-30T15:14:25.079Z,98841.59
2018-09-30T15:16:54.099Z,98833.58
2018-09-30T15:19:22.318Z,98835.25
2018-09-30T15:21:50.413Z,98839.67
2018-09-30T15:24:18.892Z,98833.56
2018-09-30T15:26:47.173Z,98828.72
2018-09-30T15:29:15.285Z,98828.27
2018-09-30T15:31:43.737Z,98821.13
2018-09-30T15:34:12.124Z,98818.36
2018-09-30T15:36:40.585Z,98780.44
2018-09-30T15:39:11.705Z,98813.88
2018-09-30T15:41:41.117Z,98816.56
2018-09-30T15:44:10.836Z,98815.59
2018-09-30T15:46:40.180Z,98810.22
2018-09-30T15:49:09.131Z,98838.17
2018-09-30T15:51:37.708Z,98804.55
2018-09-30T15:54:06.570Z,98808.05
2018-09-30T15:56:35.027Z,98805.31
2018-09-30T15:59:03.637Z,98810.98
2018-09-30T16:01:32.182Z,98777.38
2018-09-30T16:04:00.990Z,98812.77
2018-09-30T16:06:29.241Z,98795.88
2018-09-30T16:08:58.209Z,98785.45
2018-09-30T16:11:27.078Z,98781.23
2018-09-30T16:13:55.508Z,98785.49
2018-09-30T16:16:24.309Z,98805.78
2018-09-30T16:18:53.340Z,98803.00
2018-09-30T16:21:21.554Z,98792.21
2018-09-30T16:23:50.158Z,98799.48
2018-09-30T16:26:18.310Z,98795.70
2018-09-30T16:28:46.546Z,98799.59
2018-09-30T16:31:15.274Z,98798.43
2018-09-30T16:33:44.219Z,98804.79
2018-09-30T16:36:12.800Z,98803.63
2018-09-30T16:38:41.535Z,98801.83
2018-09-30T16:41:09.801Z,98802.55
2018-09-30T16:43:38.568Z,98803.02
2018-09-30T16:46:07.659Z,98803.11
2018-09-30T16:48:38.840Z,98806.15
2018-09-30T16:51:07.265Z,98809.42
2018-09-30T16:53:35.385Z,98807.60
2018-09-30T16:56:03.647Z,98808.94
2018-09-30T16:58:31.882Z,98806.09
2018-09-30T17:01:00.494Z,98805.14
2018-09-30T17:03:28.858Z,98803.20
2018-09-30T17:05:57.525Z,98770.78
2018-09-30T17:08:26.189Z,98807.43
2018-09-30T17:10:54.842Z,98800.12
2018-09-30T17:13:23.362Z,98804.47
2018-09-30T17:15:51.968Z,98800.70
2018-09-30T17:18:20.856Z,98799.88
2018-09-30T17:20:53.196Z,98797.14
2018-09-30T17:23:21.958Z,98795.66
2018-09-30T17:25:50.686Z,98794.52
2018-09-30T17:28:19.530Z,98802.69
2018-09-30T17:30:48.781Z,98802.72
2018-09-30T17:33:17.057Z,98795.72
2018-09-30T17:35:45.956Z,98797.39
2018-09-30T17:38:15.153Z,98800.84
2018-09-30T17:40:44.023Z,98795.63
2018-09-30T17:43:17.506Z,98800.96
2018-09-30T17:45:52.750Z,98799.42
2018-09-30T17:48:30.103Z,98796.63
2018-09-30T17:51:02.893Z,98805.14
2018-09-30T17:53:31.313Z,98831.70
2018-09-30T17:56:01.147Z,98796.12
2018-09-30T17:58:29.686Z,98796.97
2018-09-30T18:00:58.416Z,98800.14
2018-09-30T18:03:30.808Z,98803.93
2018-09-30T18:05:59.635Z,98800.34
2018-09-30T18:08:36.944Z,98797.67
2018-09-30T18:11:08.493Z,98788.38
2018-09-30T18:13:39.051Z,98796.84
2018-09-30T18:16:11.172Z,98824.48
2018-09-30T18:18:39.526Z,98783.80
2018-09-30T18:21:08.610Z,98783.64
2018-09-30T18:23:38.088Z,98780.86
2018-09-30T18:26:11.815Z,98785.94
2018-09-30T18:28:41.730Z,98776.81
2018-09-30T18:31:14.510Z,98779.73
2018-09-30T18:33:45.931Z,98705.03
2018-09-30T18:36:17.027Z,98781.24
2018-09-30T18:38:47.650Z,98730.06
2018-09-30T18:41:21.551Z,98660.25
2018-09-30T18:43:53.312Z,98533.28
2018-09-30T18:46:28.822Z,98659.94
2018-09-30T18:48:58.056Z,98775.00
2018-09-30T18:51:29.274Z,98777.52
2018-09-30T18:56:48.363Z,98772.23
2018-09-30T18:59:25.039Z,98771.22
2018-09-30T19:02:07.866Z,98768.78
2018-09-30T19:04:36.633Z,98771.17
2018-09-30T19:07:11.130Z,98765.58
2018-09-30T19:09:47.270Z,98762.59
2018-09-30T19:12:33.200Z,98709.98
2018-09-30T19:15:04.072Z,98751.86
2018-09-30T19:17:35.254Z,98680.89
2018-09-30T19:20:09.817Z,98719.52
2018-09-30T19:22:41.931Z,98754.33
2018-09-30T19:25:12.093Z,98753.55
2018-09-30T19:27:40.994Z,98749.47
2018-09-30T19:30:10.955Z,98763.84
2018-09-30T19:32:42.424Z,98754.41
2018-09-30T19:35:12.062Z,98752.29
2018-09-30T19:37:45.937Z,98748.28
2018-09-30T19:40:17.844Z,98738.06
2018-09-30T19:42:46.643Z,98740.00
2018-09-30T19:45:15.499Z,98649.86
2018-09-30T19:47:45.222Z,98718.77
2018-09-30T19:50:19.972Z,98734.27
2018-09-30T19:52:49.020Z,98731.73
2018-09-30T19:55:17.453Z,98669.13
2018-09-30T19:57:47.262Z,98726.77
2018-09-30T20:00:15.380Z,98719.14
2018-09-30T20:02:46.272Z,98706.07
2018-09-30T20:05:21.293Z,98674.08
2018-09-30T20:07:51.355Z,98692.86
2018-09-30T20:10:20.305Z,98668.70
2018-09-30T20:12:49.946Z,98697.13
2018-09-30T20:15:19.144Z,98715.07
2018-09-30T20:17:54.313Z,98699.83
2018-09-30T20:20:24.089Z,98695.76
2018-09-30T20:22:55.759Z,98674.42
2018-09-30T20:25:24.871Z,98708.64
2018-09-30T20:27:55.209Z,98652.45
2018-09-30T20:30:25.497Z,98661.11
2018-09-30T20:32:54.477Z,98687.20
2018-09-30T20:35:31.325Z,98708.65
2018-09-30T20:38:01.888Z,98649.21
2018-09-30T20:40:31.966Z,98691.26
2018-09-30T20:43:01.913Z,98679.38
2018-09-30T20:45:31.062Z,98700.14
2018-09-30T20:47:59.394Z,98704.64
2018-09-30T20:50:27.749Z,98687.70
2018-09-30T20:52:56.363Z,98697.34
2018-09-30T20:55:24.513Z,98691.61
2018-09-30T20:57:53.192Z,98688.70
2018-09-30T21:00:22.590Z,98676.29
2018-09-30T21:02:52.394Z,98672.45
2018-09-30T21:07:32.828Z,98671.80
2018-09-30T21:10:01.123Z,98670.71
2018-09-30T21:12:29.279Z,98670.03
2018-09-30T21:14:57.598Z,98653.50
2018-09-30T21:17:26.629Z,98667.67
2018-09-30T21:19:55.128Z,98680.08
2018-09-30T21:22:23.719Z,98677.56
2018-09-30T21:24:52.160Z,98657.80
2018-09-30T21:27:20.717Z,98649.67
2018-09-30T21:29:49.479Z,98682.16
2018-09-30T21:32:21.065Z,98668.80
2018-09-30T21:34:49.597Z,98666.02
2018-09-30T21:37:18.064Z,98673.18
2018-09-30T21:39:46.701Z,98670.20
2018-09-30T21:42:15.121Z,98634.63
2018-09-30T21:44:43.957Z,98667.47
2018-09-30T21:47:16.611Z,98674.22
2018-09-30T21:49:46.189Z,98666.47
2018-09-30T21:52:14.441Z,98669.05
2018-09-30T21:54:42.570Z,98669.20
2018-09-30T21:57:10.890Z,98673.76
2018-09-30T21:59:39.311Z,98600.25
2018-09-30T22:02:07.973Z,98668.47
2018-09-30T22:04:36.665Z,98668.22
2018-09-30T22:07:05.278Z,98677.91
2018-09-30T22:09:33.444Z,98682.53
2018-09-30T22:12:01.944Z,98672.72
2018-09-30T22:14:30.704Z,98676.84
2018-09-30T22:17:01.307Z,98669.13
2018-09-30T22:19:32.744Z,98671.39
2018-09-30T22:22:01.061Z,98670.84
2018-09-30T22:24:30.370Z,98671.62
2018-09-30T22:26:59.366Z,98661.43
2018-09-30T22:29:27.515Z,98673.33
2018-09-30T22:31:56.628Z,98656.30
2018-09-30T22:34:27.584Z,98671.91
2018-09-30T22:36:55.816Z,98674.87
2018-09-30T22:39:24.116Z,98678.06
2018-09-30T22:41:53.915Z,98663.76
2018-09-30T22:44:22.014Z,98662.98
2018-09-30T22:46:51.029Z,98667.70
2018-09-30T22:49:19.869Z,98664.28
2018-09-30T22:51:48.168Z,98657.05
2018-09-30T22:54:16.415Z,98657.59
2018-09-30T22:56:45.419Z,98662.76
2018-09-30T22:59:13.778Z,98664.38
2018-09-30T23:01:42.749Z,98639.17
2018-09-30T23:04:11.808Z,98656.78
2018-09-30T23:06:40.410Z,98657.27
2018-09-30T23:09:09.040Z,98660.88
2018-09-30T23:11:37.996Z,98659.84
2018-09-30T23:14:06.480Z,98657.86
2018-09-30T23:16:34.987Z,98649.33
2018-09-30T23:19:03.884Z,98651.77
2018-09-30T23:21:32.422Z,98658.27
2018-09-30T23:24:01.378Z,98655.84
2018-09-30T23:26:30.425Z,98649.31
2018-09-30T23:29:00.272Z,98528.27
2018-09-30T23:31:28.750Z,98659.24
2018-09-30T23:33:57.903Z,98665.13
2018-09-30T23:36:26.565Z,98670.13
2018-09-30T23:38:55.308Z,98661.20
2018-09-30T23:41:24.081Z,98667.35
2018-09-30T23:43:52.782Z,98664.19
2018-09-30T23:46:21.738Z,98665.31
2018-09-30T23:48:50.266Z,98677.70
2018-09-30T23:51:18.752Z,98683.07
2018-09-30T23:53:47.345Z,98686.24
2018-09-30T23:56:15.977Z,98676.72
2018-09-30T23:58:44.541Z,98681.98
